Terminal Aerodrome Forecast
Issued by NWS

Home | Current Version | Previous Version | Text Only | Print | Product List | Glossary On
Versions: 1 2 3 4 5 6 7 8 9 10 11 12 13 14 15
000
FTUS46 KOTX 170808 AAA
TAFMWH
TAF AMD
KMWH 170808Z 1708/1806 VRB04KT P6SM SKC
     FM171500 18006KT P6SM SCT150 SCT200 WS020/24030KT
     FM171900 23016G25KT P6SM BKN150
     FM172000 25026G43KT 6SM HZ BKN080
     FM172200 27022G30KT P6SM SCT100
     FM180000 27015G23KT P6SM FEW200
     FM180300 28009KT P6SM SKC=

USA.gov is the U.S. government's official web portal to all federal, state and local government web resources and services.